Ames, South Dakota
Current Conditions -  °F | °C
As of 2:53 AM on Friday 24 Oct 2014 (Local Time) from KPIR Reporting Station
Clear Clear  
Wind Chill: 39°   Ceiling: Unl
Heat Index: 42°   Visibility: 10mi
Dew Point: 35°   Wind: 5mph
Humidity: 76%   Direction: 250°WSW
Pressure: 29.85"   Gusts: NA
Location:  44.3693°N, 100.04°W
Report Text: KPIR 240753Z AUTO 25004KT 10SM CLR 06/02 A2985 RMK AO2 SLP108 T00560017
Loading
Personal Weather Stations






























Interactive Weather Map
Tropical Storm Tracking
New forecast layout! Learn more

10-Day Weather Forecast

Advertisements
Track Severe Weather on mobile